Time;durP1;ratioP1;P1;durP2;ratioP2;P2;SDS_P1;SDS_P2;PMS_P1;PMS_P2;Temp;Humidity;BMP_temperature;BMP_pressure;BME280_temperature;BME280_humidity;BME280_pressure;Samples;Min_cycle;Max_cycle;Signal;HPM_P1;HPM_P2
2022/05/11 00:01:34;;;;;;;17.15;11.50;;;13.40;99.90;;;;;;5017133;28;20045;-84
2022/05/11 00:04:01;;;;;;;15.13;12.35;;;13.40;99.90;;;;;;5017393;28;20128;-84
2022/05/11 00:06:28;;;;;;;13.13;11.35;;;13.40;99.90;;;;;;5033518;28;20184;-84
2022/05/11 00:08:56;;;;;;;15.32;10.55;;;13.40;99.90;;;;;;5034630;28;20060;-84
2022/05/11 00:11:23;;;;;;;15.52;12.73;;;13.40;99.90;;;;;;5033738;28;20030;-84
2022/05/11 00:13:49;;;;;;;19.40;12.45;;;13.40;99.90;;;;;;5016931;28;20025;-84
2022/05/11 00:16:15;;;;;;;16.33;13.38;;;13.40;99.90;;;;;;5034635;28;20033;-84
2022/05/11 00:18:41;;;;;;;18.30;13.10;;;13.30;99.90;;;;;;5033185;28;20030;-84
2022/05/11 00:21:11;;;;;;;15.07;13.23;;;13.30;99.90;;;;;;5016827;28;20041;-84
2022/05/11 00:23:37;;;;;;;15.75;12.77;;;13.40;99.90;;;;;;5016778;28;20776;-84
2022/05/11 00:26:03;;;;;;;15.27;12.57;;;13.50;99.90;;;;;;5032992;28;20031;-84
2022/05/11 00:28:29;;;;;;;15.68;12.52;;;13.50;99.90;;;;;;5034251;28;20470;-84
2022/05/11 00:30:54;;;;;;;14.10;11.88;;;13.50;99.90;;;;;;5033942;28;20493;-84
2022/05/11 00:33:20;;;;;;;16.10;12.38;;;13.60;99.90;;;;;;5032938;28;20815;-84
2022/05/11 00:35:48;;;;;;;18.48;12.27;;;13.60;99.90;;;;;;5034441;28;20034;-84
2022/05/11 00:38:16;;;;;;;14.55;11.98;;;13.60;99.90;;;;;;5034106;28;20083;-84
2022/05/11 00:40:47;;;;;;;13.77;11.43;;;13.70;99.90;;;;;;5033189;28;20044;-84
2022/05/11 00:43:13;;;;;;;14.40;11.77;;;13.80;99.90;;;;;;5033065;28;20037;-84
2022/05/11 00:45:45;;;;;;;14.63;12.05;;;13.90;99.90;;;;;;5032921;28;20034;-84
2022/05/11 00:50:59;;;;;;;12.80;11.07;;;14.10;99.90;;;;;;5032903;28;20025;-84
2022/05/11 00:53:26;;;;;;;14.60;11.80;;;14.20;99.90;;;;;;5034274;28;20132;-84
2022/05/11 00:55:57;;;;;;;14.88;11.45;;;14.20;99.90;;;;;;5032539;28;20033;-84
2022/05/11 00:58:50;;;;;;;15.68;11.90;;;14.20;99.90;;;;;;5032589;28;20166;-84
2022/05/11 01:01:16;;;;;;;14.38;12.52;;;14.20;99.90;;;;;;5032603;28;20079;-84
2022/05/11 01:03:48;;;;;;;15.93;11.93;;;14.20;99.90;;;;;;5014942;28;20549;-84
2022/05/11 01:06:14;;;;;;;12.75;11.32;;;14.20;99.90;;;;;;5032132;28;20512;-84
2022/05/11 01:08:39;;;;;;;14.52;12.05;;;14.30;99.90;;;;;;5031751;28;20480;-84
2022/05/11 01:11:06;;;;;;;15.82;12.05;;;14.20;99.90;;;;;;5032598;28;20079;-84
2022/05/11 01:13:33;;;;;;;17.30;11.95;;;14.20;99.90;;;;;;5016275;28;20032;-84
2022/05/11 01:16:00;;;;;;;13.02;11.60;;;14.30;99.90;;;;;;5033827;28;20029;-84
2022/05/11 01:18:27;;;;;;;14.52;11.52;;;14.30;99.90;;;;;;5015954;28;20053;-84
2022/05/11 01:20:53;;;;;;;14.02;10.77;;;14.40;99.90;;;;;;5032476;28;20037;-84
2022/05/11 01:23:35;;;;;;;12.73;11.00;;;14.40;99.90;;;;;;5033547;28;20029;-84
2022/05/11 01:26:02;;;;;;;15.20;11.27;;;14.40;99.90;;;;;;5015790;28;20037;-84
2022/05/11 01:28:28;;;;;;;14.45;11.68;;;14.50;99.90;;;;;;5032082;28;20030;-84
2022/05/11 01:31:04;;;;;;;14.70;11.27;;;14.60;99.90;;;;;;5032061;28;20033;-84
2022/05/11 01:33:30;;;;;;;12.85;10.38;;;14.60;99.90;;;;;;5031964;28;20124;-84
2022/05/11 01:36:18;;;;;;;14.25;11.02;;;14.60;99.90;;;;;;5032792;28;20033;-84
2022/05/11 01:38:48;;;;;;;13.90;10.52;;;14.60;99.90;;;;;;5032716;28;20112;-84
2022/05/11 01:41:23;;;;;;;12.10;10.80;;;14.50;99.90;;;;;;5032914;28;20044;-85
2022/05/11 01:43:49;;;;;;;12.82;10.77;;;14.50;99.90;;;;;;5031606;28;20033;-84
2022/05/11 01:46:16;;;;;;;14.00;10.80;;;14.50;99.90;;;;;;5015202;28;20084;-84
2022/05/11 01:48:42;;;;;;;13.80;11.02;;;14.40;99.90;;;;;;5014606;28;20022;-84
2022/05/11 01:51:08;;;;;;;11.82;10.63;;;14.40;99.90;;;;;;5015500;28;20029;-84
2022/05/11 01:53:34;;;;;;;11.73;10.52;;;14.40;99.90;;;;;;5015191;28;20084;-84
2022/05/11 01:55:59;;;;;;;13.63;10.32;;;14.40;99.90;;;;;;5031366;28;20037;-84
2022/05/11 01:58:26;;;;;;;17.55;11.98;;;14.40;99.90;;;;;;5015129;28;20128;-84
2022/05/11 02:00:52;;;;;;;13.80;11.85;;;14.50;99.90;;;;;;5015491;28;20567;-84
2022/05/11 02:03:20;;;;;;;14.23;10.52;;;14.50;99.90;;;;;;5032179;28;20099;-84
2022/05/11 02:08:36;;;;;;;13.40;10.30;;;14.40;99.90;;;;;;5032908;28;20061;-84
2022/05/11 02:11:02;;;;;;;14.55;11.18;;;14.20;99.90;;;;;;5031993;28;20025;-84
2022/05/11 02:13:29;;;;;;;14.25;10.85;;;14.10;99.90;;;;;;5032640;28;20558;-84
2022/05/11 02:15:55;;;;;;;16.40;11.43;;;14.10;99.90;;;;;;5019786;28;20026;-84
2022/05/11 02:18:20;;;;;;;11.82;10.35;;;14.00;99.90;;;;;;5037191;28;20025;-84
2022/05/11 02:20:46;;;;;;;14.95;11.07;;;14.00;99.90;;;;;;5036248;28;20575;-84
2022/05/11 02:23:20;;;;;;;18.08;10.45;;;14.00;99.90;;;;;;5019535;28;20496;-84
2022/05/11 02:25:47;;;;;;;18.48;11.40;;;13.90;99.90;;;;;;5035676;28;20116;-84
2022/05/11 02:28:14;;;;;;;12.40;10.52;;;13.90;99.90;;;;;;5018677;28;20251;-84
2022/05/11 02:30:41;;;;;;;12.80;9.88;;;13.90;99.90;;;;;;5035566;28;20029;-84
2022/05/11 02:33:07;;;;;;;16.15;10.48;;;14.00;99.90;;;;;;5035778;28;20036;-84
2022/05/11 02:35:34;;;;;;;12.07;9.90;;;14.10;99.90;;;;;;5036804;28;20029;-84
2022/05/11 02:38:09;;;;;;;11.93;9.82;;;14.00;99.90;;;;;;5034516;28;20049;-84
2022/05/11 02:40:37;;;;;;;15.63;10.27;;;14.00;99.90;;;;;;5035340;28;20044;-84
2022/05/11 02:43:04;;;;;;;14.93;10.68;;;14.10;99.90;;;;;;5035237;28;20033;-84
2022/05/11 02:45:32;;;;;;;15.52;10.85;;;14.00;99.90;;;;;;5035955;28;20025;-84
2022/05/11 02:48:01;;;;;;;16.60;10.43;;;13.90;99.90;;;;;;5034128;28;20084;-84
2022/05/11 02:50:31;;;;;;;13.45;9.90;;;13.80;99.90;;;;;;5018237;28;20034;-84
2022/05/11 02:52:56;;;;;;;12.50;10.48;;;13.70;99.90;;;;;;5018577;28;20033;-84
2022/05/11 02:55:22;;;;;;;14.50;10.02;;;13.70;99.90;;;;;;5036334;28;20034;-84
2022/05/11 02:57:48;;;;;;;20.38;10.13;;;13.70;99.90;;;;;;5018633;28;20099;-84
2022/05/11 03:00:17;;;;;;;13.32;10.30;;;13.70;99.90;;;;;;5036377;28;20033;-84
2022/05/11 03:02:42;;;;;;;12.18;9.80;;;13.70;99.90;;;;;;5035038;28;20025;-84
2022/05/11 03:05:11;;;;;;;15.25;11.23;;;13.70;99.90;;;;;;5035051;28;20571;-84
2022/05/11 03:07:37;;;;;;;11.63;10.07;;;13.70;99.90;;;;;;5034543;28;20026;-84
2022/05/11 03:10:04;;;;;;;14.65;9.85;;;13.70;99.90;;;;;;5036438;28;20112;-84
2022/05/11 03:12:32;;;;;;;13.45;10.20;;;13.80;99.90;;;;;;5017663;28;20747;-84
2022/05/11 03:14:58;;;;;;;14.57;10.05;;;13.70;99.90;;;;;;5035842;28;20393;-84
2022/05/11 03:17:24;;;;;;;12.50;10.20;;;13.70;99.90;;;;;;5017779;28;20036;-84
2022/05/11 03:19:50;;;;;;;13.23;10.45;;;13.60;99.90;;;;;;5034541;28;20128;-84
2022/05/11 03:22:16;;;;;;;10.70;9.30;;;13.60;99.90;;;;;;5017983;28;20461;-84
2022/05/11 03:24:42;;;;;;;14.60;10.48;;;13.50;99.90;;;;;;5018024;28;20435;-84
2022/05/11 03:27:07;;;;;;;12.80;10.13;;;13.50;99.90;;;;;;5017715;28;20079;-84
2022/05/11 03:29:33;;;;;;;17.35;10.77;;;13.50;99.90;;;;;;5034428;28;20025;-84
2022/05/11 03:34:43;;;;;;;14.93;11.38;;;13.40;99.90;;;;;;5034082;28;20037;-84
2022/05/11 03:37:12;;;;;;;14.52;11.35;;;13.40;99.90;;;;;;5033979;28;20037;-84
2022/05/11 03:39:38;;;;;;;16.50;11.65;;;13.30;99.90;;;;;;5033944;28;20511;-84
2022/05/11 03:42:06;;;;;;;15.10;11.85;;;13.30;99.90;;;;;;5033874;28;20033;-84
2022/05/11 03:44:31;;;;;;;15.18;10.68;;;13.30;99.90;;;;;;5033956;28;20087;-84
2022/05/11 03:46:57;;;;;;;16.55;11.70;;;13.30;99.90;;;;;;5016720;28;20029;-84
2022/05/11 03:49:23;;;;;;;15.00;10.77;;;13.30;99.90;;;;;;5033666;28;20060;-81
2022/05/11 03:51:50;;;;;;;13.98;11.02;;;13.40;99.90;;;;;;5032684;28;20086;-81
2022/05/11 03:54:18;;;;;;;14.82;10.65;;;13.30;99.90;;;;;;5033311;28;20084;-81
2022/05/11 03:56:44;;;;;;;14.73;11.45;;;13.30;99.90;;;;;;5030941;28;20021;-81
2022/05/11 03:59:09;;;;;;;13.18;10.90;;;13.30;99.90;;;;;;5034298;28;20041;-81
2022/05/11 04:01:35;;;;;;;12.70;10.02;;;13.30;99.90;;;;;;5033233;28;20033;-81
2022/05/11 04:04:02;;;;;;;15.50;11.55;;;13.30;99.90;;;;;;5032927;28;20026;-81
2022/05/11 04:06:29;;;;;;;14.13;11.20;;;13.30;99.90;;;;;;5032867;28;20030;-81
2022/05/11 04:08:55;;;;;;;14.82;10.82;;;13.30;99.90;;;;;;5015950;28;20041;-81
2022/05/11 04:11:22;;;;;;;12.93;10.90;;;13.30;99.90;;;;;;5032417;28;20072;-82
2022/05/11 04:13:49;;;;;;;15.43;10.80;;;13.40;99.90;;;;;;5016807;28;20587;-81
2022/05/11 04:16:16;;;;;;;11.82;9.88;;;13.40;99.90;;;;;;5032954;28;20052;-81
2022/05/11 04:18:42;;;;;;;13.57;10.15;;;13.50;99.90;;;;;;5015835;28;20163;-81
2022/05/11 04:21:09;;;;;;;13.88;9.63;;;13.60;99.90;;;;;;5015531;28;20087;-81
2022/05/11 04:23:35;;;;;;;15.73;10.23;;;13.80;99.90;;;;;;5033174;28;20037;-81
2022/05/11 04:26:01;;;;;;;15.38;10.00;;;13.90;99.90;;;;;;5032929;28;20106;-81
2022/05/11 04:28:27;;;;;;;14.40;9.70;;;14.00;99.90;;;;;;5032875;28;20073;-81
2022/05/11 04:31:19;;;;;;;11.15;9.45;;;14.10;99.90;;;;;;5032733;28;20029;-81
2022/05/11 04:33:47;;;;;;;14.15;10.18;;;14.20;99.90;;;;;;5030816;28;20046;-81
2022/05/11 04:36:12;;;;;;;14.00;9.60;;;14.30;99.90;;;;;;5016036;28;20396;-81
2022/05/11 04:38:38;;;;;;;12.80;9.45;;;14.40;99.90;;;;;;5031275;28;20029;-81
2022/05/11 04:41:04;;;;;;;13.00;9.75;;;14.50;99.90;;;;;;5033581;28;20029;-82
2022/05/11 04:43:30;;;;;;;11.05;9.48;;;14.50;99.90;;;;;;5033961;28;20087;-82
2022/05/11 04:45:57;;;;;;;15.93;10.18;;;14.60;99.90;;;;;;5032585;28;20033;-81
2022/05/11 04:48:23;;;;;;;12.63;8.80;;;14.60;99.90;;;;;;5031981;28;20056;-81
2022/05/11 04:50:49;;;;;;;11.23;9.20;;;14.60;99.90;;;;;;5032262;28;20029;-81
2022/05/11 04:53:16;;;;;;;10.77;9.35;;;14.60;99.90;;;;;;5031945;28;20044;-81
2022/05/11 04:55:45;;;;;;;13.52;9.98;;;14.50;99.90;;;;;;5016044;28;20033;-81
2022/05/11 04:58:10;;;;;;;11.85;9.45;;;14.50;99.90;;;;;;5027649;28;20080;-81
2022/05/11 05:00:36;;;;;;;12.82;9.63;;;14.60;99.90;;;;;;5033278;28;20029;-82
2022/05/11 05:03:07;;;;;;;12.32;8.90;;;14.70;99.90;;;;;;5033727;28;20125;-81
2022/05/11 05:05:32;;;;;;;15.55;9.45;;;14.70;99.90;;;;;;5015310;28;20697;-81
2022/05/11 05:07:58;;;;;;;15.18;8.82;;;14.90;99.90;;;;;;5014713;28;20033;-81
2022/05/11 05:10:24;;;;;;;14.07;9.82;;;15.20;99.90;;;;;;5014961;28;20288;-82
2022/05/11 05:12:50;;;;;;;11.30;9.32;;;15.30;99.90;;;;;;5032444;28;20720;-82
2022/05/11 05:15:17;;;;;;;10.65;9.15;;;15.40;99.90;;;;;;5032005;28;20045;-81
2022/05/11 05:17:43;;;;;;;11.85;8.90;;;15.60;99.90;;;;;;5031816;28;20055;-82
2022/05/11 05:20:12;;;;;;;12.57;8.90;;;15.70;99.90;;;;;;5032058;28;20021;-82
2022/05/11 05:22:39;;;;;;;10.63;8.50;;;15.80;99.90;;;;;;5031928;28;20033;-82
2022/05/11 05:25:05;;;;;;;15.20;8.70;;;15.90;99.90;;;;;;5032058;28;20400;-82
2022/05/11 05:27:31;;;;;;;14.05;8.50;;;16.00;99.90;;;;;;5031261;28;20036;-81
2022/05/11 05:32:43;;;;;;;9.95;8.77;;;16.20;99.90;;;;;;5031811;28;20064;-82
2022/05/11 05:35:12;;;;;;;12.77;9.40;;;16.20;99.90;;;;;;5014810;28;20116;-81
2022/05/11 05:37:38;;;;;;;9.68;8.68;;;16.30;99.90;;;;;;5031401;28;20040;-82
2022/05/11 05:40:05;;;;;;;12.50;9.15;;;16.30;99.90;;;;;;5033268;28;20033;-82
2022/05/11 05:42:32;;;;;;;15.40;8.48;;;16.30;99.90;;;;;;5031642;28;20045;-82
2022/05/11 05:44:57;;;;;;;14.32;9.02;;;16.40;99.90;;;;;;5031666;28;20075;-82
2022/05/11 05:47:23;;;;;;;13.45;8.90;;;16.40;99.90;;;;;;5031070;28;20033;-82
2022/05/11 05:49:49;;;;;;;10.70;8.77;;;16.40;99.90;;;;;;5031095;28;20032;-82
2022/05/11 05:52:17;;;;;;;11.43;8.27;;;16.50;99.90;;;;;;5030495;28;20140;-81
2022/05/11 05:54:45;;;;;;;12.85;8.52;;;16.50;99.90;;;;;;5030236;28;20037;-81
2022/05/11 05:57:11;;;;;;;12.57;8.10;;;16.60;99.90;;;;;;5030319;28;20102;-81
2022/05/11 05:59:37;;;;;;;12.43;8.93;;;16.60;99.90;;;;;;5029812;28;20392;-82
2022/05/11 06:02:03;;;;;;;9.95;8.30;;;16.70;99.90;;;;;;5031267;28;20025;-81
2022/05/11 06:04:29;;;;;;;13.02;8.25;;;16.70;99.90;;;;;;5014692;28;20124;-82
2022/05/11 06:06:54;;;;;;;11.43;8.60;;;16.70;99.90;;;;;;5031150;28;20132;-82
2022/05/11 06:09:20;;;;;;;10.23;8.55;;;16.80;99.90;;;;;;5027143;28;20040;-82
2022/05/11 06:11:46;;;;;;;10.13;8.48;;;16.80;99.90;;;;;;5031152;28;20080;-82
2022/05/11 06:14:12;;;;;;;8.85;7.78;;;16.90;99.90;;;;;;5031394;28;20036;-82
2022/05/11 06:16:37;;;;;;;11.27;8.43;;;16.90;99.90;;;;;;5031145;28;20028;-81
2022/05/11 06:19:05;;;;;;;13.88;8.07;;;17.00;99.90;;;;;;5014389;28;20029;-81
2022/05/11 06:21:31;;;;;;;9.55;7.93;;;17.00;99.90;;;;;;5030865;28;20022;-82
2022/05/11 06:23:57;;;;;;;9.05;7.38;;;17.10;99.90;;;;;;5030652;28;20030;-82
2022/05/11 06:26:23;;;;;;;13.80;8.02;;;17.10;99.90;;;;;;5031815;28;20038;-82
2022/05/11 06:28:49;;;;;;;10.65;7.72;;;17.20;99.90;;;;;;5031844;28;20017;-81
2022/05/11 06:31:15;;;;;;;19.83;12.52;;;17.20;99.90;;;;;;5030613;28;20037;-82
2022/05/11 06:33:41;;;;;;;18.77;11.10;;;17.30;99.90;;;;;;5030312;28;20030;-82
2022/05/11 06:36:09;;;;;;;11.02;8.18;;;17.40;99.90;;;;;;5029843;28;20037;-81
2022/05/11 06:38:36;;;;;;;10.98;7.72;;;17.40;99.90;;;;;;5012202;28;20061;-82
2022/05/11 06:41:10;;;;;;;12.05;8.57;;;17.50;99.90;;;;;;5029436;28;20044;-82
2022/05/11 06:43:36;;;;;;;11.20;8.95;;;17.50;99.90;;;;;;5030311;28;20124;-82
2022/05/11 06:46:02;;;;;;;11.75;7.85;;;17.50;99.90;;;;;;5031334;28;20156;-82
2022/05/11 06:48:27;;;;;;;13.32;8.07;;;17.60;99.90;;;;;;5030020;28;20021;-82
2022/05/11 06:50:53;;;;;;;12.07;8.10;;;17.60;99.90;;;;;;5029912;28;20029;-82
2022/05/11 06:53:19;;;;;;;8.77;7.88;;;17.70;99.90;;;;;;5014152;28;20036;-82
2022/05/11 07:01:25;;;;;;;11.45;7.85;;;17.90;99.90;;;;;;5032857;28;20036;-82
2022/05/11 07:03:51;;;;;;;10.43;7.72;;;18.00;99.90;;;;;;5017206;28;20033;-82
2022/05/11 07:06:17;;;;;;;8.50;7.63;;;18.10;99.90;;;;;;5032917;28;20026;-82
2022/05/11 07:08:45;;;;;;;8.70;7.28;;;18.10;99.90;;;;;;5016020;28;20033;-82
2022/05/11 07:13:56;;;;;;;9.43;7.70;;;18.20;99.90;;;;;;5033089;28;20033;-82
2022/05/11 07:16:23;;;;;;;11.00;6.75;;;18.30;99.90;;;;;;5029334;28;20067;-82
2022/05/11 07:18:49;;;;;;;8.45;7.03;;;18.40;99.90;;;;;;5035026;28;20564;-82
2022/05/11 07:21:15;;;;;;;10.25;7.20;;;18.50;99.90;;;;;;5033874;28;20045;-82
2022/05/11 07:23:41;;;;;;;13.77;7.10;;;18.70;99.90;;;;;;5033338;28;20049;-82
2022/05/11 07:26:07;;;;;;;11.02;7.53;;;18.80;99.90;;;;;;5034523;28;20135;-82
2022/05/11 07:28:33;;;;;;;8.10;7.22;;;18.80;99.90;;;;;;5033156;28;20030;-82
2022/05/11 07:30:58;;;;;;;10.75;7.07;;;18.80;99.90;;;;;;5016217;28;20117;-82
2022/05/11 07:33:25;;;;;;;8.18;7.35;;;18.90;99.90;;;;;;5016599;28;20484;-83
2022/05/11 07:35:50;;;;;;;7.85;6.97;;;18.90;99.90;;;;;;5016427;28;20037;-82
2022/05/11 07:38:18;;;;;;;9.32;7.40;;;19.00;99.90;;;;;;5016289;28;20034;-82
2022/05/11 07:40:45;;;;;;;8.23;7.20;;;19.10;99.90;;;;;;5032926;28;20400;-82
2022/05/11 07:43:12;;;;;;;14.07;6.93;;;19.20;99.90;;;;;;5016265;28;20037;-82
2022/05/11 07:45:39;;;;;;;12.18;6.53;;;19.20;99.90;;;;;;5032926;28;20043;-82
2022/05/11 07:48:06;;;;;;;13.63;7.25;;;19.20;99.90;;;;;;5032868;28;20132;-82
2022/05/11 07:50:31;;;;;;;9.32;7.03;;;19.30;99.90;;;;;;5016679;28;20057;-82
2022/05/11 07:52:57;;;;;;;8.40;7.07;;;19.40;99.90;;;;;;5034028;28;20057;-82
2022/05/11 07:55:25;;;;;;;13.50;6.80;;;19.50;99.90;;;;;;5012294;28;20393;-82
2022/05/11 08:00:37;;;;;;;11.63;6.30;;;19.60;99.90;;;;;;5033356;28;20846;-82
2022/05/11 08:03:03;;;;;;;11.32;6.50;;;19.60;99.90;;;;;;5033558;28;20061;-82
2022/05/11 08:05:30;;;;;;;10.85;6.60;;;20.10;99.90;;;;;;5016923;28;20116;-82
2022/05/11 08:07:58;;;;;;;9.35;6.82;;;21.50;99.90;;;;;;5032958;28;20107;-82
2022/05/11 08:10:28;;;;;;;11.73;6.20;;;23.00;99.90;;;;;;5033236;28;20432;-82
2022/05/11 08:12:53;;;;;;;9.82;5.85;;;24.40;99.90;;;;;;5016632;28;20044;-82
2022/05/11 08:15:21;;;;;;;13.07;6.03;;;25.10;99.90;;;;;;5016974;28;20037;-82
2022/05/11 08:17:49;;;;;;;8.23;5.20;;;25.70;99.90;;;;;;5006724;28;20128;-82
2022/05/11 08:20:25;;;;;;;11.48;5.55;;;26.10;99.90;;;;;;5032459;28;20041;-82
2022/05/11 08:22:52;;;;;;;7.40;5.72;;;25.90;99.90;;;;;;5016433;28;20033;-82
2022/05/11 08:25:21;;;;;;;6.20;5.18;;;26.30;99.90;;;;;;5032104;28;20543;-83
2022/05/11 08:27:48;;;;;;;11.55;5.50;;;26.00;99.90;;;;;;5032643;28;20068;-82
2022/05/11 08:35:49;;;;;;;11.57;5.72;;;27.00;99.90;;;;;;5032785;28;20041;-82
2022/05/11 08:38:16;;;;;;;11.63;5.10;;;27.10;99.70;;;;;;5016259;28;20091;-83
2022/05/11 08:40:57;;;;;;;8.00;4.78;;;27.70;97.50;;;;;;5016572;28;20032;-82
2022/05/11 08:43:25;;;;;;;7.35;5.65;;;28.50;96.50;;;;;;5032728;28;20033;-82
2022/05/11 08:46:16;;;;;;;6.82;5.32;;;28.30;94.90;;;;;;5016354;28;20045;-83
2022/05/11 08:48:51;;;;;;;10.43;5.25;;;28.60;94.60;;;;;;5031017;28;20049;-82
2022/05/11 08:51:25;;;;;;;13.68;5.78;;;28.90;93.90;;;;;;5015611;28;20366;-82
2022/05/11 08:54:04;;;;;;;10.57;5.70;;;28.60;92.80;;;;;;5016169;28;20531;-82
2022/05/11 08:56:31;;;;;;;7.65;5.38;;;28.10;93.20;;;;;;5015771;28;20025;-82
2022/05/11 08:58:57;;;;;;;9.25;5.10;;;28.20;92.40;;;;;;5031596;28;20025;-83
2022/05/11 09:01:29;;;;;;;8.18;5.47;;;28.40;92.90;;;;;;5015735;28;20029;-82
2022/05/11 09:03:58;;;;;;;6.10;5.50;;;28.40;92.40;;;;;;5031522;28;20033;-83
2022/05/11 09:06:30;;;;;;;5.72;4.65;;;28.40;91.90;;;;;;5015445;28;20060;-83
2022/05/11 09:09:00;;;;;;;6.15;4.63;;;28.30;92.50;;;;;;5031511;28;20038;-83
2022/05/11 09:11:41;;;;;;;12.20;4.72;;;28.40;91.90;;;;;;5015443;28;20056;-82
2022/05/11 09:14:07;;;;;;;12.65;4.75;;;28.60;92.20;;;;;;5031920;28;20401;-82
2022/05/11 09:16:43;;;;;;;10.80;5.20;;;28.50;91.70;;;;;;5015690;28;20083;-81
2022/05/11 09:19:10;;;;;;;6.45;4.70;;;29.00;90.10;;;;;;5015451;28;20033;-82
2022/05/11 09:21:38;;;;;;;8.57;4.90;;;28.90;90.50;;;;;;5033482;28;20037;-83
2022/05/11 09:24:18;;;;;;;10.05;6.25;;;28.60;85.90;;;;;;5015223;28;20488;-83
2022/05/11 09:26:58;;;;;;;10.90;5.70;;;28.60;89.40;;;;;;5010920;28;20041;-83
2022/05/11 09:29:41;;;;;;;11.15;4.70;;;28.00;88.20;;;;;;5015037;28;20083;-83
2022/05/11 09:32:31;;;;;;;8.85;4.00;;;28.30;85.60;;;;;;5031185;28;20068;-82
2022/05/11 09:35:26;;;;;;;7.60;4.25;;;28.20;87.00;;;;;;5014623;28;20362;-82
2022/05/11 09:38:10;;;;;;;10.40;5.20;;;28.90;88.40;;;;;;5014778;28;20436;-82
2022/05/11 09:40:55;;;;;;;9.40;4.82;;;29.30;87.20;;;;;;5031494;28;20550;-83
2022/05/11 09:43:37;;;;;;;6.45;4.00;;;28.30;82.80;;;;;;5014324;28;20033;-82
2022/05/11 09:46:26;;;;;;;9.82;4.57;;;28.60;81.20;;;;;;5013262;28;20044;-82
2022/05/11 09:48:58;;;;;;;30.67;4.55;;;28.30;83.10;;;;;;5014794;28;20025;-83
2022/05/11 09:51:26;;;;;;;7.45;4.32;;;28.20;80.20;;;;;;5031089;28;20078;-82
2022/05/11 09:54:06;;;;;;;6.28;4.32;;;27.60;83.10;;;;;;5031638;28;20037;-83
2022/05/11 09:56:33;;;;;;;8.95;5.32;;;27.00;84.70;;;;;;5015235;28;20477;-82
2022/05/11 09:59:37;;;;;;;6.07;4.20;;;26.30;89.40;;;;;;5031155;28;20037;-83
2022/05/11 10:02:35;;;;;;;5.03;4.32;;;26.60;87.20;;;;;;5014994;28;20038;-83
2022/05/11 10:05:03;;;;;;;11.30;5.05;;;26.60;88.00;;;;;;5014881;28;20037;-82
2022/05/11 10:07:36;;;;;;;13.00;9.75;;;26.40;87.00;;;;;;5014875;28;20033;-82
2022/05/11 10:10:12;;;;;;;84.55;44.45;;;26.20;87.80;;;;;;5031001;28;20096;-82
2022/05/11 10:12:41;;;;;;;11.30;5.70;;;26.50;90.40;;;;;;5014331;28;20069;-83
2022/05/11 10:23:54;;;;;;;6.38;4.40;;;27.00;87.00;;;;;;5027327;28;20050;-83
2022/05/11 10:26:30;;;;;;;8.25;3.97;;;26.80;85.10;;;;;;5014302;28;20124;-83
2022/05/11 10:29:11;;;;;;;7.13;3.67;;;26.70;82.60;;;;;;5013438;28;20026;-82
2022/05/11 10:31:48;;;;;;;10.60;4.63;;;26.60;84.10;;;;;;5031235;28;20122;-82
2022/05/11 10:34:36;;;;;;;10.77;4.18;;;27.00;83.60;;;;;;5014229;28;20397;-83
2022/05/11 10:37:15;;;;;;;4.15;3.75;;;28.00;86.60;;;;;;5034066;28;20057;-82
2022/05/11 10:39:59;;;;;;;5.43;4.05;;;27.70;81.90;;;;;;5034377;28;20033;-83
2022/05/11 10:42:33;;;;;;;6.72;4.47;;;27.30;82.10;;;;;;5034429;28;20091;-83
2022/05/11 10:45:23;;;;;;;10.25;4.30;;;27.00;84.10;;;;;;5017951;28;20126;-82
2022/05/11 10:47:55;;;;;;;11.00;4.72;;;26.40;84.00;;;;;;5017552;28;20112;-82
2022/05/11 10:50:45;;;;;;;7.78;4.25;;;26.40;85.20;;;;;;5034572;28;20025;-82
2022/05/11 10:53:33;;;;;;;11.82;4.50;;;26.90;86.50;;;;;;5034627;28;20798;-83
2022/05/11 10:56:23;;;;;;;7.53;4.78;;;26.80;83.80;;;;;;5018014;28;20033;-82
2022/05/11 10:59:20;;;;;;;10.85;5.20;;;25.70;87.70;;;;;;5034674;28;20036;-81
2022/05/11 11:02:06;;;;;;;10.52;4.78;;;25.80;86.60;;;;;;5034816;28;20030;-82
2022/05/11 11:05:05;;;;;;;11.38;4.75;;;26.10;87.20;;;;;;5010783;28;20045;-82
2022/05/11 11:07:54;;;;;;;11.25;4.88;;;26.50;85.30;;;;;;5009873;28;20041;-82
2022/05/11 11:10:48;;;;;;;11.27;4.25;;;26.60;85.90;;;;;;5017753;28;20030;-82
2022/05/11 11:13:25;;;;;;;8.50;4.43;;;27.30;87.80;;;;;;5013925;28;20067;-82
2022/05/11 11:15:52;;;;;;;8.50;4.15;;;27.30;83.60;;;;;;5017927;28;20171;-83
2022/05/11 11:18:35;;;;;;;11.57;4.47;;;27.20;84.90;;;;;;5034992;28;20544;-82
2022/05/11 11:21:02;;;;;;;7.05;3.90;;;27.30;82.60;;;;;;5017630;28;20033;-83
2022/05/11 11:23:38;;;;;;;13.30;4.93;;;27.10;82.50;;;;;;5016911;28;20037;-83
2022/05/11 11:26:25;;;;;;;11.43;4.40;;;26.20;81.90;;;;;;5034859;28;20064;-83
2022/05/11 11:28:54;;;;;;;7.60;4.20;;;25.70;83.60;;;;;;5016806;28;20428;-82
2022/05/11 11:31:22;;;;;;;18.42;6.00;;;25.80;83.60;;;;;;5033299;28;20060;-82
2022/05/11 11:33:54;;;;;;;12.20;4.50;;;26.30;83.40;;;;;;5016731;28;20076;-82
2022/05/11 11:36:33;;;;;;;12.45;4.45;;;26.60;81.30;;;;;;5016725;28;20033;-83
2022/05/11 11:39:02;;;;;;;9.15;4.03;;;26.80;81.10;;;;;;5016199;28;20060;-83
2022/05/11 11:41:30;;;;;;;6.78;4.57;;;26.60;80.40;;;;;;5017253;28;20041;-82
2022/05/11 11:43:58;;;;;;;8.25;5.10;;;26.50;82.90;;;;;;5017278;28;20095;-83
2022/05/11 11:46:27;;;;;;;8.68;4.45;;;26.10;83.40;;;;;;5033113;28;20040;-82
2022/05/11 11:49:32;;;;;;;15.05;5.00;;;26.10;84.10;;;;;;5016939;28;20485;-82
2022/05/11 11:52:28;;;;;;;5.85;4.45;;;26.20;84.00;;;;;;5033450;28;20108;-82
2022/05/11 11:54:54;;;;;;;9.80;5.28;;;26.00;81.20;;;;;;5016783;28;20065;-82
2022/05/11 11:57:22;;;;;;;9.18;4.22;;;26.40;83.60;;;;;;5033343;28;20477;-82
2022/05/11 11:59:50;;;;;;;14.50;4.55;;;26.60;85.00;;;;;;5016503;28;20037;-83
2022/05/11 12:02:33;;;;;;;11.05;4.93;;;26.80;85.00;;;;;;5033243;28;20065;-82
2022/05/11 12:05:37;;;;;;;14.00;5.20;;;26.60;83.20;;;;;;5033491;28;20033;-82
2022/05/11 12:16:54;;;;;;;12.35;5.32;;;26.60;84.50;;;;;;5032800;28;20041;-82
2022/05/11 12:19:22;;;;;;;7.20;5.10;;;26.60;85.10;;;;;;5032666;28;20044;-81
2022/05/11 12:22:02;;;;;;;13.90;4.60;;;26.90;83.60;;;;;;5032879;28;20033;-82
2022/05/11 12:24:37;;;;;;;13.37;4.63;;;27.10;81.60;;;;;;5033025;28;20072;-82
2022/05/11 12:27:12;;;;;;;10.68;4.78;;;27.40;82.50;;;;;;5016612;28;20291;-82
2022/05/11 12:30:00;;;;;;;17.80;5.00;;;27.70;81.50;;;;;;5033132;28;20397;-82
2022/05/11 12:32:30;;;;;;;12.90;6.10;;;27.80;79.80;;;;;;5016354;28;20129;-82
2022/05/11 12:35:06;;;;;;;9.13;5.07;;;27.60;79.00;;;;;;5015606;28;20029;-82
2022/05/11 12:37:35;;;;;;;13.65;4.72;;;27.60;82.20;;;;;;5032684;28;20541;-83
2022/05/11 12:40:17;;;;;;;6.30;5.45;;;27.70;80.20;;;;;;5015609;28;20044;-82
2022/05/11 12:42:50;;;;;;;6.55;5.63;;;27.70;81.50;;;;;;5016046;28;20103;-83
2022/05/11 12:46:04;;;;;;;12.40;6.25;;;27.80;78.90;;;;;;5015757;28;20490;-82
2022/05/11 12:48:44;;;;;;;12.13;5.70;;;27.60;79.80;;;;;;4997002;28;20037;-83
2022/05/11 12:51:14;;;;;;;10.75;4.65;;;27.30;79.50;;;;;;5032680;28;20093;-83
2022/05/11 12:53:52;;;;;;;14.93;5.07;;;27.30;78.70;;;;;;5015784;28;20117;-83
2022/05/11 12:56:19;;;;;;;6.53;5.53;;;27.70;78.80;;;;;;5032204;28;20135;-82
2022/05/11 12:58:59;;;;;;;10.73;4.80;;;27.80;81.40;;;;;;5014469;28;20037;-83
2022/05/11 13:01:31;;;;;;;7.88;4.97;;;27.60;79.30;;;;;;5015649;28;20048;-83
2022/05/11 13:03:59;;;;;;;9.02;4.70;;;27.60;81.10;;;;;;5015851;28;20191;-83
2022/05/11 13:06:31;;;;;;;9.65;5.13;;;28.30;80.30;;;;;;5015632;28;20033;-82
2022/05/11 13:09:08;;;;;;;15.88;4.95;;;28.30;77.90;;;;;;5015097;28;20790;-83
2022/05/11 13:11:36;;;;;;;12.57;5.30;;;28.20;80.10;;;;;;5031982;28;20030;-83
2022/05/11 13:14:10;;;;;;;9.02;4.93;;;28.60;78.10;;;;;;5032977;28;20026;-83
2022/05/11 13:16:36;;;;;;;10.93;5.00;;;28.70;80.30;;;;;;5015595;28;20068;-83
2022/05/11 13:19:29;;;;;;;16.88;5.20;;;28.90;79.60;;;;;;5031898;28;20392;-83
2022/05/11 13:21:57;;;;;;;10.30;5.82;;;28.50;77.70;;;;;;5032051;28;20037;-83
2022/05/11 13:24:42;;;;;;;12.38;5.00;;;28.30;81.20;;;;;;5015731;28;20041;-83
2022/05/11 13:27:34;;;;;;;7.55;5.47;;;28.30;78.30;;;;;;5015061;28;20352;-82
2022/05/11 13:30:20;;;;;;;8.65;4.63;;;28.50;80.30;;;;;;5015044;28;20033;-83
2022/05/11 13:32:51;;;;;;;12.52;5.43;;;28.90;76.00;;;;;;5031980;28;20036;-83
2022/05/11 13:35:24;;;;;;;16.25;5.35;;;29.00;76.10;;;;;;5015794;28;20041;-83
2022/05/11 13:38:05;;;;;;;7.95;4.90;;;29.10;76.70;;;;;;5015438;28;20029;-83
2022/05/11 13:40:55;;;;;;;8.13;5.50;;;29.00;77.50;;;;;;5031148;28;20033;-83